Pell City, Alabama
Current Conditions -  °F | °C
As of 2:15 AM on Thursday 27 Nov 2014 (Local Time) from KASN Reporting Station
Scattered Clouds Scattered Clouds  
Wind Chill: 41°   Ceiling: Unl
Heat Index: 45°   Visibility: 10mi
Dew Point: 31°   Wind: 7mph
Humidity: 59%   Direction: 280°W
Pressure: 30.19"   Gusts: NA
Location:  33.59°N, 86.29°W
Report Text: KASN 270815Z AUTO 28006KT 10SM SCT065 07/M01 A3019 RMK AO2 T00701006
Loading
Personal Weather Stations






























Interactive Weather Map New forecast layout! Learn more

10-Day Weather Forecast

Advertisements
Track Severe Weather on mobile